Time;durP1;ratioP1;P1;durP2;ratioP2;P2;SDS_P1;SDS_P2;PMS_P1;PMS_P2;Temp;Humidity;BMP_temperature;BMP_pressure;BME280_temperature;BME280_humidity;BME280_pressure;Samples;Min_cycle;Max_cycle;Signal;HPM_P1;HPM_P2
2023/09/30 00:02:21;;;;;;;20.35;6.25;;;;;;;;;;5077209;28;20592;-64
2023/09/30 00:04:47;;;;;;;23.08;5.90;;;;;;;;;;5080669;28;20259;-64
2023/09/30 00:07:12;;;;;;;20.27;6.13;;;;;;;;;;5074029;28;20196;-64
2023/09/30 00:09:37;;;;;;;20.25;5.55;;;;;;;;;;5071275;28;20184;-64
2023/09/30 00:12:03;;;;;;;23.27;5.65;;;;;;;;;;5088717;28;20215;-64
2023/09/30 00:14:29;;;;;;;21.02;6.45;;;;;;;;;;5082350;28;20183;-64
2023/09/30 00:16:55;;;;;;;30.10;5.90;;;;;;;;;;5093145;28;20195;-64
2023/09/30 00:19:22;;;;;;;23.38;5.38;;;;;;;;;;5091929;28;20267;-64
2023/09/30 00:21:48;;;;;;;22.95;5.82;;;;;;;;;;5088482;28;20187;-64
2023/09/30 00:24:13;;;;;;;22.40;6.43;;;;;;;;;;5089022;28;20235;-63
2023/09/30 00:26:39;;;;;;;23.35;5.55;;;;;;;;;;5098500;28;20498;-64
2023/09/30 00:29:05;;;;;;;20.63;5.88;;;;;;;;;;5091608;28;20194;-64
2023/09/30 00:31:30;;;;;;;24.98;5.75;;;;;;;;;;5087849;28;20191;-64
2023/09/30 00:33:56;;;;;;;21.67;5.82;;;;;;;;;;5090195;28;20184;-64
2023/09/30 00:36:22;;;;;;;18.80;5.10;;;;;;;;;;5085561;28;20268;-64
2023/09/30 00:38:47;;;;;;;20.45;6.22;;;;;;;;;;5081736;28;20495;-65
2023/09/30 00:41:12;;;;;;;20.38;5.28;;;;;;;;;;5091830;28;20673;-64
2023/09/30 00:43:38;;;;;;;17.88;5.15;;;;;;;;;;5092329;28;20678;-64
2023/09/30 00:46:29;;;;;;;20.80;5.72;;;;;;;;;;5090842;28;20187;-64
2023/09/30 00:48:56;;;;;;;19.23;4.85;;;;;;;;;;5090410;28;20549;-63
2023/09/30 00:51:22;;;;;;;22.35;5.88;;;;;;;;;;5089922;28;20647;-63
2023/09/30 00:53:52;;;;;;;17.08;5.35;;;;;;;;;;5084797;28;20197;-63
2023/09/30 00:56:23;;;;;;;22.63;5.22;;;;;;;;;;5084597;28;20195;-64
2023/09/30 00:58:51;;;;;;;23.00;5.85;;;;;;;;;;5086373;28;20188;-64
2023/09/30 01:01:16;;;;;;;19.73;5.07;;;;;;;;;;5089818;28;20761;-64
2023/09/30 01:03:41;;;;;;;23.50;5.78;;;;;;;;;;5090567;28;20311;-64
2023/09/30 01:06:07;;;;;;;16.48;5.05;;;;;;;;;;5091202;28;20650;-64
2023/09/30 01:08:34;;;;;;;17.45;5.63;;;;;;;;;;5096986;28;20675;-64
2023/09/30 01:11:00;;;;;;;13.68;5.13;;;;;;;;;;5090338;28;20282;-64
2023/09/30 01:13:36;;;;;;;18.70;5.20;;;;;;;;;;5073531;28;20249;-64
2023/09/30 01:16:05;;;;;;;20.50;5.38;;;;;;;;;;5105866;28;20187;-64
2023/09/30 01:18:31;;;;;;;21.90;5.15;;;;;;;;;;5091820;28;20561;-64
2023/09/30 01:21:03;;;;;;;17.25;5.45;;;;;;;;;;5092158;28;20202;-64
2023/09/30 01:23:29;;;;;;;20.17;4.90;;;;;;;;;;5099817;28;20281;-64
2023/09/30 01:25:54;;;;;;;22.10;5.28;;;;;;;;;;5072228;28;20192;-64
2023/09/30 01:28:20;;;;;;;19.85;5.53;;;;;;;;;;5092265;28;20198;-64
2023/09/30 01:30:45;;;;;;;26.83;5.72;;;;;;;;;;5091491;28;20198;-64
2023/09/30 01:33:11;;;;;;;20.98;5.20;;;;;;;;;;5087417;28;20189;-64
2023/09/30 01:35:36;;;;;;;22.63;5.95;;;;;;;;;;5086074;28;20191;-64
2023/09/30 01:38:02;;;;;;;24.77;5.97;;;;;;;;;;5088947;28;20210;-64
2023/09/30 01:40:27;;;;;;;19.17;6.25;;;;;;;;;;5091439;28;20194;-64
2023/09/30 01:42:52;;;;;;;23.25;6.43;;;;;;;;;;5090414;28;20302;-64
2023/09/30 01:45:18;;;;;;;21.02;6.28;;;;;;;;;;5090882;28;20228;-64
2023/09/30 01:47:43;;;;;;;24.08;6.60;;;;;;;;;;5093648;28;20248;-64
2023/09/30 01:50:09;;;;;;;20.45;6.93;;;;;;;;;;5083759;28;20193;-64
2023/09/30 01:52:34;;;;;;;20.85;6.05;;;;;;;;;;5090640;28;20188;-64
2023/09/30 01:54:59;;;;;;;26.25;7.00;;;;;;;;;;5092033;28;20199;-64
2023/09/30 01:57:25;;;;;;;25.60;6.90;;;;;;;;;;5106019;28;20557;-64
2023/09/30 01:59:51;;;;;;;26.58;6.60;;;;;;;;;;5091356;28;20196;-64
2023/09/30 02:02:17;;;;;;;22.35;7.03;;;;;;;;;;5091735;28;20232;-64
2023/09/30 02:04:43;;;;;;;24.58;7.03;;;;;;;;;;5097703;28;20198;-64
2023/09/30 02:07:09;;;;;;;24.38;6.97;;;;;;;;;;5105209;28;20274;-64
2023/09/30 02:09:34;;;;;;;23.83;6.90;;;;;;;;;;5091596;28;20619;-64
2023/09/30 02:12:00;;;;;;;30.65;6.55;;;;;;;;;;5103214;28;20343;-64
2023/09/30 02:14:25;;;;;;;24.33;7.18;;;;;;;;;;5107965;28;20199;-63
2023/09/30 02:16:51;;;;;;;31.08;7.75;;;;;;;;;;5090620;28;20196;-63
2023/09/30 02:19:16;;;;;;;23.85;7.05;;;;;;;;;;5097858;28;20288;-63
2023/09/30 02:21:42;;;;;;;25.90;8.15;;;;;;;;;;5091829;28;20194;-63
2023/09/30 02:24:07;;;;;;;25.25;7.90;;;;;;;;;;5089504;28;20219;-63
2023/09/30 02:26:33;;;;;;;25.58;8.05;;;;;;;;;;5091948;28;20195;-63
2023/09/30 02:28:58;;;;;;;25.08;8.52;;;;;;;;;;5089489;28;20180;-64
2023/09/30 02:31:24;;;;;;;28.05;8.30;;;;;;;;;;5090529;28;20206;-64
2023/09/30 02:33:49;;;;;;;22.42;8.00;;;;;;;;;;5090386;28;20199;-64
2023/09/30 02:36:15;;;;;;;23.73;8.38;;;;;;;;;;5084831;28;20218;-64
2023/09/30 02:38:41;;;;;;;23.50;8.32;;;;;;;;;;5090846;28;20196;-64
2023/09/30 02:41:07;;;;;;;25.30;8.25;;;;;;;;;;5088261;28;20196;-64
2023/09/30 02:43:32;;;;;;;27.42;8.02;;;;;;;;;;5071300;28;20207;-64
2023/09/30 02:45:58;;;;;;;24.15;8.10;;;;;;;;;;5089581;28;20184;-64
2023/09/30 02:48:24;;;;;;;29.15;8.80;;;;;;;;;;5097988;28;20191;-64
2023/09/30 02:50:49;;;;;;;22.95;8.23;;;;;;;;;;5086758;28;20191;-64
2023/09/30 02:53:15;;;;;;;28.70;10.10;;;;;;;;;;5072795;28;20184;-64
2023/09/30 02:55:41;;;;;;;22.85;7.88;;;;;;;;;;5088604;28;20215;-64
2023/09/30 02:58:08;;;;;;;29.33;9.90;;;;;;;;;;5087033;28;20184;-64
2023/09/30 03:00:34;;;;;;;26.10;8.98;;;;;;;;;;5089461;28;20184;-64
2023/09/30 03:03:01;;;;;;;30.75;9.73;;;;;;;;;;5091979;28;20234;-65
2023/09/30 03:05:30;;;;;;;25.65;10.10;;;;;;;;;;5090025;28;20299;-64
2023/09/30 03:07:56;;;;;;;22.88;10.40;;;;;;;;;;5084103;28;20192;-64
2023/09/30 03:10:23;;;;;;;28.60;9.75;;;;;;;;;;5095667;28;20184;-64
2023/09/30 03:12:52;;;;;;;28.35;10.35;;;;;;;;;;5088951;28;20188;-65
2023/09/30 03:15:18;;;;;;;23.50;10.43;;;;;;;;;;5076168;28;20180;-64
2023/09/30 03:17:43;;;;;;;28.20;9.90;;;;;;;;;;5086776;28;20678;-64
2023/09/30 03:20:19;;;;;;;27.40;10.75;;;;;;;;;;5088131;28;20296;-64
2023/09/30 03:22:47;;;;;;;29.48;10.10;;;;;;;;;;5098985;28;20859;-64
2023/09/30 03:25:16;;;;;;;32.05;13.15;;;;;;;;;;5085112;28;20188;-64
2023/09/30 03:27:41;;;;;;;22.58;9.73;;;;;;;;;;5088015;28;20541;-64
2023/09/30 03:30:08;;;;;;;29.88;10.63;;;;;;;;;;5070118;28;20207;-64
2023/09/30 03:32:37;;;;;;;25.88;10.98;;;;;;;;;;5070347;28;20181;-64
2023/09/30 03:35:05;;;;;;;27.33;11.02;;;;;;;;;;5090136;28;20592;-64
2023/09/30 03:37:31;;;;;;;28.80;10.57;;;;;;;;;;5090072;28;20204;-64
2023/09/30 03:39:57;;;;;;;24.63;10.68;;;;;;;;;;5079371;28;20215;-64
2023/09/30 03:42:23;;;;;;;25.20;11.25;;;;;;;;;;5084587;28;20304;-64
2023/09/30 03:44:49;;;;;;;27.55;12.98;;;;;;;;;;5086708;28;20341;-64
2023/09/30 03:47:18;;;;;;;33.10;12.93;;;;;;;;;;5085773;28;20286;-64
2023/09/30 03:49:44;;;;;;;26.33;11.20;;;;;;;;;;5082111;28;20187;-64
2023/09/30 03:52:10;;;;;;;25.83;11.48;;;;;;;;;;5077158;28;20195;-64
2023/09/30 03:54:37;;;;;;;35.47;12.15;;;;;;;;;;5088697;28;20196;-64
2023/09/30 03:57:03;;;;;;;30.15;11.68;;;;;;;;;;5082841;28;20196;-64
2023/09/30 03:59:30;;;;;;;33.42;11.98;;;;;;;;;;5080447;28;20184;-64
2023/09/30 04:01:57;;;;;;;27.83;11.63;;;;;;;;;;5070073;28;20215;-64
2023/09/30 04:04:22;;;;;;;28.50;11.63;;;;;;;;;;5089505;28;20210;-64
2023/09/30 04:06:47;;;;;;;31.33;12.63;;;;;;;;;;5089877;28;20650;-64
2023/09/30 04:09:13;;;;;;;35.20;12.35;;;;;;;;;;5094050;28;20192;-64
2023/09/30 04:11:39;;;;;;;36.97;12.93;;;;;;;;;;5112179;28;20202;-64
2023/09/30 04:14:08;;;;;;;31.58;12.30;;;;;;;;;;5098405;28;20199;-64
2023/09/30 04:16:34;;;;;;;29.55;13.77;;;;;;;;;;5089649;28;20184;-63
2023/09/30 04:19:00;;;;;;;27.25;12.07;;;;;;;;;;5074552;28;20192;-64
2023/09/30 04:21:27;;;;;;;24.95;11.35;;;;;;;;;;5082232;28;20720;-63
2023/09/30 04:23:53;;;;;;;29.08;13.27;;;;;;;;;;5098077;28;20211;-63
2023/09/30 04:26:18;;;;;;;31.38;12.38;;;;;;;;;;5092091;28;20195;-63
2023/09/30 04:28:43;;;;;;;39.20;12.90;;;;;;;;;;5092710;28;20263;-63
2023/09/30 04:31:09;;;;;;;34.50;12.93;;;;;;;;;;5086142;28;20191;-63
2023/09/30 04:33:35;;;;;;;23.20;10.20;;;;;;;;;;5079643;28;20241;-63
2023/09/30 04:36:01;;;;;;;33.10;14.43;;;;;;;;;;5077229;28;20477;-63
2023/09/30 04:38:27;;;;;;;34.08;13.35;;;;;;;;;;5085229;28;20560;-63
2023/09/30 04:40:54;;;;;;;26.92;12.82;;;;;;;;;;5091987;28;20196;-63
2023/09/30 04:43:20;;;;;;;31.13;13.85;;;;;;;;;;5092206;28;20581;-64
2023/09/30 04:45:46;;;;;;;30.27;13.45;;;;;;;;;;5093750;28;20741;-64
2023/09/30 04:48:12;;;;;;;28.05;12.70;;;;;;;;;;5089215;28;20283;-64
2023/09/30 04:50:41;;;;;;;35.70;13.38;;;;;;;;;;5087814;28;20262;-64
2023/09/30 04:53:07;;;;;;;33.17;13.75;;;;;;;;;;5091287;28;20344;-63
2023/09/30 04:55:33;;;;;;;34.28;12.68;;;;;;;;;;5092419;28;20464;-64
2023/09/30 04:57:58;;;;;;;28.40;12.32;;;;;;;;;;5106451;28;20289;-64
2023/09/30 05:00:27;;;;;;;36.53;13.77;;;;;;;;;;5091278;28;20184;-64
2023/09/30 05:02:55;;;;;;;31.33;12.98;;;;;;;;;;5072011;28;20220;-64
2023/09/30 05:05:21;;;;;;;29.67;12.32;;;;;;;;;;5091450;28;20657;-64
2023/09/30 05:07:47;;;;;;;32.53;13.57;;;;;;;;;;5091457;28;20305;-63
2023/09/30 05:10:16;;;;;;;33.88;14.10;;;;;;;;;;5091605;28;20194;-64
2023/09/30 05:12:45;;;;;;;34.95;14.15;;;;;;;;;;5099815;28;20188;-64
2023/09/30 05:15:19;;;;;;;32.42;14.98;;;;;;;;;;5090328;28;20180;-64
2023/09/30 05:17:45;;;;;;;34.55;15.10;;;;;;;;;;5092360;28;20241;-64
2023/09/30 05:20:12;;;;;;;37.17;15.00;;;;;;;;;;5079851;28;20176;-64
2023/09/30 05:22:40;;;;;;;34.28;14.50;;;;;;;;;;5081976;28;20217;-64
2023/09/30 05:25:07;;;;;;;32.13;15.80;;;;;;;;;;5084007;28;20193;-64
2023/09/30 05:27:32;;;;;;;34.75;16.67;;;;;;;;;;5080302;28;20188;-64
2023/09/30 05:29:58;;;;;;;35.33;15.45;;;;;;;;;;5078714;28;20291;-64
2023/09/30 05:32:23;;;;;;;36.95;14.80;;;;;;;;;;5090559;28;20263;-63
2023/09/30 05:34:48;;;;;;;36.28;16.05;;;;;;;;;;5090316;28;20533;-63
2023/09/30 05:37:14;;;;;;;34.05;14.50;;;;;;;;;;5086474;28;20536;-63
2023/09/30 05:39:40;;;;;;;40.88;17.02;;;;;;;;;;5090627;28;20226;-64
2023/09/30 05:42:06;;;;;;;32.33;16.20;;;;;;;;;;5091696;28;20560;-63
2023/09/30 05:44:32;;;;;;;38.42;17.27;;;;;;;;;;5086532;28;20252;-64
2023/09/30 05:46:57;;;;;;;42.15;18.42;;;;;;;;;;5087360;28;20192;-64
2023/09/30 05:49:23;;;;;;;45.53;17.42;;;;;;;;;;5090676;28;20184;-64
2023/09/30 05:51:50;;;;;;;48.75;18.40;;;;;;;;;;5090340;28;20243;-64
2023/09/30 05:54:16;;;;;;;40.05;17.55;;;;;;;;;;5091681;28;20263;-64
2023/09/30 05:56:43;;;;;;;39.70;16.55;;;;;;;;;;5080161;28;20348;-64
2023/09/30 05:59:09;;;;;;;31.13;12.68;;;;;;;;;;5092416;28;20711;-64
2023/09/30 06:01:35;;;;;;;35.60;18.67;;;;;;;;;;5081222;28;20232;-64
2023/09/30 06:04:01;;;;;;;47.78;18.58;;;;;;;;;;5086367;28;20539;-64
2023/09/30 06:06:29;;;;;;;39.45;19.17;;;;;;;;;;5083482;28;20457;-65
2023/09/30 06:08:58;;;;;;;48.25;19.75;;;;;;;;;;5100303;28;20675;-65
2023/09/30 06:11:29;;;;;;;38.63;18.88;;;;;;;;;;5090576;28;20640;-65
2023/09/30 06:13:55;;;;;;;33.67;18.02;;;;;;;;;;5085839;28;20184;-65
2023/09/30 06:16:21;;;;;;;38.95;18.60;;;;;;;;;;5085304;28;20188;-65
2023/09/30 06:18:46;;;;;;;38.35;19.45;;;;;;;;;;5083495;28;20756;-65
2023/09/30 06:21:14;;;;;;;45.40;20.38;;;;;;;;;;5081414;28;20270;-65
2023/09/30 06:23:40;;;;;;;43.42;19.65;;;;;;;;;;5081846;28;20659;-65
2023/09/30 06:26:06;;;;;;;43.72;20.67;;;;;;;;;;5080624;28;20203;-65
2023/09/30 06:28:33;;;;;;;43.35;19.77;;;;;;;;;;5084328;28;20184;-65
2023/09/30 06:30:59;;;;;;;46.28;20.73;;;;;;;;;;5092814;28;20192;-65
2023/09/30 06:33:25;;;;;;;46.45;20.55;;;;;;;;;;5079488;28;20238;-65
2023/09/30 06:35:50;;;;;;;44.33;21.85;;;;;;;;;;5081496;28;20199;-65
2023/09/30 06:38:19;;;;;;;47.70;22.25;;;;;;;;;;5083997;28;20189;-65
2023/09/30 06:40:46;;;;;;;49.10;22.88;;;;;;;;;;5083349;28;20191;-65
2023/09/30 06:43:12;;;;;;;50.47;23.80;;;;;;;;;;5086369;28;20235;-64
2023/09/30 06:45:41;;;;;;;41.60;22.48;;;;;;;;;;5095954;28;20665;-64
2023/09/30 06:48:13;;;;;;;45.67;22.48;;;;;;;;;;5079122;28;20188;-64
2023/09/30 06:50:43;;;;;;;40.47;20.83;;;;;;;;;;5091071;28;20176;-65
2023/09/30 06:53:09;;;;;;;48.95;24.25;;;;;;;;;;5083665;28;20184;-64
2023/09/30 06:55:36;;;;;;;46.17;23.00;;;;;;;;;;5078092;28;20659;-64
2023/09/30 06:58:02;;;;;;;45.85;24.55;;;;;;;;;;5086893;28;20187;-64
2023/09/30 07:00:27;;;;;;;46.45;25.20;;;;;;;;;;5086814;28;20179;-64
2023/09/30 07:02:53;;;;;;;52.30;25.75;;;;;;;;;;5071856;28;20327;-65
2023/09/30 07:05:19;;;;;;;52.47;25.77;;;;;;;;;;5081415;28;20278;-64
2023/09/30 07:07:45;;;;;;;51.42;26.42;;;;;;;;;;5084812;28;20612;-65
2023/09/30 07:10:11;;;;;;;42.63;25.80;;;;;;;;;;5092539;28;20320;-64
2023/09/30 07:12:37;;;;;;;51.65;25.55;;;;;;;;;;5079551;28;20193;-64
2023/09/30 07:15:04;;;;;;;48.97;27.48;;;;;;;;;;5087195;28;20618;-64
2023/09/30 07:17:30;;;;;;;45.40;26.40;;;;;;;;;;5085894;28;20613;-64
2023/09/30 07:19:55;;;;;;;49.05;26.33;;;;;;;;;;5083345;28;20228;-64
2023/09/30 07:22:20;;;;;;;49.20;26.00;;;;;;;;;;5084184;28;20287;-64
2023/09/30 07:24:46;;;;;;;49.90;27.63;;;;;;;;;;5081543;28;20702;-65
2023/09/30 07:27:11;;;;;;;47.08;27.05;;;;;;;;;;5075228;28;20195;-65
2023/09/30 07:29:37;;;;;;;51.95;25.98;;;;;;;;;;5081555;28;20195;-64
2023/09/30 07:32:02;;;;;;;53.00;26.48;;;;;;;;;;5087557;28;20278;-64
2023/09/30 07:34:27;;;;;;;45.53;26.50;;;;;;;;;;5068589;28;20214;-65
2023/09/30 07:36:53;;;;;;;45.58;25.92;;;;;;;;;;5082427;28;20589;-64
2023/09/30 07:39:18;;;;;;;51.67;27.67;;;;;;;;;;5087842;28;20223;-64
2023/09/30 07:41:44;;;;;;;42.15;25.67;;;;;;;;;;5085183;28;20199;-64
2023/09/30 07:44:09;;;;;;;45.03;24.55;;;;;;;;;;5083778;28;20650;-64
2023/09/30 07:46:35;;;;;;;51.33;27.05;;;;;;;;;;5083777;28;20188;-63
2023/09/30 07:49:00;;;;;;;43.97;24.88;;;;;;;;;;5071836;28;20207;-64
2023/09/30 07:51:26;;;;;;;46.47;25.23;;;;;;;;;;5078883;28;20670;-63
2023/09/30 07:53:52;;;;;;;47.42;28.02;;;;;;;;;;5086305;28;20235;-64
2023/09/30 07:56:17;;;;;;;48.38;25.67;;;;;;;;;;5086565;28;20265;-64
2023/09/30 07:58:42;;;;;;;36.20;23.90;;;;;;;;;;5076430;28;20203;-63
2023/09/30 08:01:08;;;;;;;47.25;26.50;;;;;;;;;;5073156;28;20192;-63
2023/09/30 08:03:34;;;;;;;41.33;25.25;;;;;;;;;;5090501;28;20454;-63
2023/09/30 08:06:00;;;;;;;41.25;24.17;;;;;;;;;;5076220;28;20654;-63
2023/09/30 08:08:25;;;;;;;43.40;24.88;;;;;;;;;;5066288;28;20287;-63
2023/09/30 08:10:55;;;;;;;39.08;22.52;;;;;;;;;;5082034;28;20265;-63
2023/09/30 08:13:21;;;;;;;40.17;23.10;;;;;;;;;;5082432;28;20647;-63
2023/09/30 08:15:46;;;;;;;44.13;23.90;;;;;;;;;;5078797;28;20210;-64
2023/09/30 08:18:11;;;;;;;33.92;22.30;;;;;;;;;;5082810;28;20657;-64
2023/09/30 08:20:37;;;;;;;37.58;22.90;;;;;;;;;;5083915;28;20204;-64
2023/09/30 08:23:03;;;;;;;37.65;21.25;;;;;;;;;;5072267;28;20274;-64
2023/09/30 08:25:28;;;;;;;38.60;21.83;;;;;;;;;;5071585;28;20228;-64
2023/09/30 08:27:54;;;;;;;33.20;19.85;;;;;;;;;;5073610;28;20284;-65
2023/09/30 08:30:20;;;;;;;34.92;20.25;;;;;;;;;;5083031;28;20198;-64
2023/09/30 08:32:46;;;;;;;32.10;19.73;;;;;;;;;;5079530;28;20208;-65
2023/09/30 08:35:14;;;;;;;27.15;18.40;;;;;;;;;;5086198;28;20184;-64
2023/09/30 08:37:39;;;;;;;28.58;18.13;;;;;;;;;;5085452;28;20192;-64
2023/09/30 08:40:06;;;;;;;27.35;16.33;;;;;;;;;;5091354;28;20254;-64
2023/09/30 08:42:33;;;;;;;28.08;15.98;;;;;;;;;;5084872;28;20656;-64
2023/09/30 08:44:59;;;;;;;28.15;16.27;;;;;;;;;;5080589;28;20180;-64
2023/09/30 08:47:31;;;;;;;33.20;16.35;;;;;;;;;;5073478;28;20275;-65
2023/09/30 08:50:05;;;;;;;23.45;14.80;;;;;;;;;;5078044;28;20192;-64
2023/09/30 08:52:32;;;;;;;24.15;14.75;;;;;;;;;;5076699;28;20180;-65
2023/09/30 08:54:57;;;;;;;24.60;15.40;;;;;;;;;;5080705;28;20200;-64
2023/09/30 08:57:24;;;;;;;22.42;12.85;;;;;;;;;;5085210;28;20199;-64
2023/09/30 08:59:52;;;;;;;21.73;13.88;;;;;;;;;;5077613;28;20679;-65
2023/09/30 09:02:18;;;;;;;23.17;14.60;;;;;;;;;;5079350;28;20319;-64
2023/09/30 09:04:45;;;;;;;26.55;14.35;;;;;;;;;;5076953;28;20279;-64
2023/09/30 09:07:11;;;;;;;24.15;14.05;;;;;;;;;;5082746;28;20199;-64
2023/09/30 09:09:36;;;;;;;21.13;12.48;;;;;;;;;;5090607;28;20200;-64
2023/09/30 09:12:02;;;;;;;25.27;12.55;;;;;;;;;;5083892;28;20287;-65
2023/09/30 09:14:39;;;;;;;27.48;12.93;;;;;;;;;;5085319;28;20188;-65
2023/09/30 09:17:07;;;;;;;24.80;12.98;;;;;;;;;;5080661;28;20210;-64
2023/09/30 09:19:33;;;;;;;19.00;12.68;;;;;;;;;;5080932;28;20624;-65
2023/09/30 09:22:04;;;;;;;22.02;13.00;;;;;;;;;;5083556;28;20184;-65
2023/09/30 09:24:29;;;;;;;21.67;12.35;;;;;;;;;;5087099;28;20242;-65
2023/09/30 09:27:24;;;;;;;19.73;12.23;;;;;;;;;;5078905;28;20184;-65
2023/09/30 09:29:50;;;;;;;20.25;12.43;;;;;;;;;;5079222;28;20300;-65
2023/09/30 09:32:16;;;;;;;26.75;11.20;;;;;;;;;;5090708;28;20313;-65
2023/09/30 09:34:44;;;;;;;22.05;10.90;;;;;;;;;;5074857;28;20265;-65
2023/09/30 09:37:20;;;;;;;19.80;11.40;;;;;;;;;;5075474;28;20275;-65
2023/09/30 09:39:50;;;;;;;22.40;10.60;;;;;;;;;;5096202;28;20260;-65
2023/09/30 09:42:26;;;;;;;24.95;10.68;;;;;;;;;;5081564;28;20210;-64
2023/09/30 09:44:55;;;;;;;19.52;9.90;;;;;;;;;;5083711;28;20642;-64
2023/09/30 09:47:21;;;;;;;19.85;9.48;;;;;;;;;;5085634;28;20511;-64
2023/09/30 09:49:47;;;;;;;17.13;9.25;;;;;;;;;;5081734;28;20193;-64
2023/09/30 09:52:15;;;;;;;20.88;9.50;;;;;;;;;;5081310;28;20245;-63
2023/09/30 09:54:43;;;;;;;14.98;7.45;;;;;;;;;;5080703;28;20188;-64
2023/09/30 09:57:10;;;;;;;12.70;6.28;;;;;;;;;;5084214;28;20265;-62
2023/09/30 09:59:36;;;;;;;14.90;7.82;;;;;;;;;;5079192;28;20212;-62
2023/09/30 10:02:09;;;;;;;14.57;6.78;;;;;;;;;;5082468;28;20216;-63
2023/09/30 10:04:36;;;;;;;14.80;7.80;;;;;;;;;;5081710;28;20512;-64
2023/09/30 10:07:03;;;;;;;16.58;7.47;;;;;;;;;;5090341;28;20191;-64
2023/09/30 10:09:30;;;;;;;15.52;7.35;;;;;;;;;;5080344;28;20236;-65
2023/09/30 10:12:01;;;;;;;16.60;7.30;;;;;;;;;;5082200;28;20196;-64
2023/09/30 10:14:32;;;;;;;16.45;7.30;;;;;;;;;;5080465;28;20459;-65
2023/09/30 10:16:58;;;;;;;14.48;6.75;;;;;;;;;;5078708;28;20192;-64
2023/09/30 10:19:23;;;;;;;14.00;6.85;;;;;;;;;;5086732;28;20188;-66
2023/09/30 10:22:21;;;;;;;12.70;5.60;;;;;;;;;;5085609;28;20646;-65
2023/09/30 10:24:50;;;;;;;15.27;6.00;;;;;;;;;;5083506;28;20214;-66
2023/09/30 10:27:21;;;;;;;15.00;5.75;;;;;;;;;;5081646;28;20180;-65
2023/09/30 10:29:47;;;;;;;12.43;4.75;;;;;;;;;;5074289;28;20275;-65
2023/09/30 10:32:13;;;;;;;14.85;5.40;;;;;;;;;;5081116;28;20251;-65
2023/09/30 10:34:39;;;;;;;9.75;4.30;;;;;;;;;;5089784;28;20230;-64
2023/09/30 10:37:20;;;;;;;12.38;4.93;;;;;;;;;;5074515;28;20181;-65
2023/09/30 10:39:58;;;;;;;12.48;4.57;;;;;;;;;;5080076;28;20588;-65
2023/09/30 10:42:44;;;;;;;12.20;4.55;;;;;;;;;;5090536;28;20522;-65
2023/09/30 10:45:43;;;;;;;10.48;4.43;;;;;;;;;;5075343;28;20668;-65
2023/09/30 10:48:31;;;;;;;10.25;4.53;;;;;;;;;;5076545;28;20236;-64
2023/09/30 10:51:10;;;;;;;12.98;4.45;;;;;;;;;;5070035;28;20755;-64
2023/09/30 10:53:45;;;;;;;11.23;3.58;;;;;;;;;;5086695;28;20192;-65
2023/09/30 10:56:10;;;;;;;9.02;3.45;;;;;;;;;;5079660;28;20184;-64
2023/09/30 10:58:40;;;;;;;8.70;3.28;;;;;;;;;;5083755;28;20422;-65
2023/09/30 11:01:05;;;;;;;6.85;2.58;;;;;;;;;;5083129;28;20264;-64
2023/09/30 11:03:30;;;;;;;11.32;3.50;;;;;;;;;;5086537;28;20669;-65
2023/09/30 11:05:56;;;;;;;10.55;3.58;;;;;;;;;;5092836;28;20196;-64
2023/09/30 11:08:23;;;;;;;12.60;3.38;;;;;;;;;;5093576;28;20682;-64
2023/09/30 11:10:50;;;;;;;9.43;3.58;;;;;;;;;;4376842;28;10000802;-64
2023/09/30 11:13:16;;;;;;;10.50;2.95;;;;;;;;;;5080110;28;20196;-64
2023/09/30 11:15:41;;;;;;;9.10;2.92;;;;;;;;;;5090826;28;20219;-65
2023/09/30 11:18:14;;;;;;;12.40;3.30;;;;;;;;;;5084896;28;20191;-65
2023/09/30 11:20:39;;;;;;;10.95;3.35;;;;;;;;;;5086387;28;20184;-64
2023/09/30 11:23:05;;;;;;;13.95;3.50;;;;;;;;;;5083388;28;20522;-64
2023/09/30 11:25:35;;;;;;;7.80;2.58;;;;;;;;;;5083186;28;20296;-64
2023/09/30 11:28:15;;;;;;;9.57;3.10;;;;;;;;;;5088640;28;20506;-65
2023/09/30 11:30:57;;;;;;;10.40;2.80;;;;;;;;;;5083900;28;20544;-64
2023/09/30 11:33:24;;;;;;;11.35;3.17;;;;;;;;;;5094605;28;20184;-64
2023/09/30 11:36:16;;;;;;;11.60;3.75;;;;;;;;;;5084144;28;20192;-64
2023/09/30 11:38:46;;;;;;;9.38;3.45;;;;;;;;;;5079835;28;20210;-64
2023/09/30 11:41:12;;;;;;;12.85;3.58;;;;;;;;;;5084197;28;20563;-64
2023/09/30 11:43:38;;;;;;;10.90;3.63;;;;;;;;;;5084817;28;20219;-64
2023/09/30 11:46:13;;;;;;;8.57;2.67;;;;;;;;;;5072250;28;20185;-64
2023/09/30 11:48:55;;;;;;;10.85;2.67;;;;;;;;;;5087695;28;20500;-64
2023/09/30 11:51:24;;;;;;;7.68;2.45;;;;;;;;;;5088720;28;20195;-64
2023/09/30 11:53:50;;;;;;;11.68;2.78;;;;;;;;;;5080432;28;20527;-64
2023/09/30 11:56:15;;;;;;;8.85;2.72;;;;;;;;;;5087754;28;20200;-64
2023/09/30 11:58:41;;;;;;;10.43;2.95;;;;;;;;;;5088416;28;20615;-64
2023/09/30 12:01:06;;;;;;;10.00;2.97;;;;;;;;;;5078297;28;20600;-65
2023/09/30 12:03:36;;;;;;;9.63;3.20;;;;;;;;;;5088142;28;20239;-64
2023/09/30 12:06:02;;;;;;;8.60;3.50;;;;;;;;;;5085031;28;20214;-64
2023/09/30 12:08:29;;;;;;;8.23;2.72;;;;;;;;;;5088279;28;20217;-64
2023/09/30 12:10:55;;;;;;;11.73;3.05;;;;;;;;;;5089338;28;20255;-64
2023/09/30 12:13:21;;;;;;;14.10;3.80;;;;;;;;;;5090998;28;20196;-64
2023/09/30 12:15:47;;;;;;;9.18;2.40;;;;;;;;;;5099444;28;20589;-64
2023/09/30 12:18:14;;;;;;;10.07;2.63;;;;;;;;;;5074453;28;20222;-64
2023/09/30 12:20:41;;;;;;;10.20;2.37;;;;;;;;;;4733077;28;10000060;-64
2023/09/30 12:23:07;;;;;;;11.10;2.85;;;;;;;;;;5076775;28;20581;-64
2023/09/30 12:25:33;;;;;;;11.52;3.20;;;;;;;;;;5085753;28;20772;-65
2023/09/30 12:27:59;;;;;;;10.63;3.35;;;;;;;;;;5086199;28;20647;-64
2023/09/30 12:30:24;;;;;;;10.02;2.35;;;;;;;;;;5077386;28;20233;-64
2023/09/30 12:32:49;;;;;;;12.00;3.25;;;;;;;;;;5091190;28;20292;-64
2023/09/30 12:35:15;;;;;;;10.60;3.00;;;;;;;;;;5087162;28;20192;-64
2023/09/30 12:37:42;;;;;;;8.60;3.30;;;;;;;;;;5088656;28;20536;-64
2023/09/30 12:40:08;;;;;;;10.40;3.17;;;;;;;;;;5089513;28;20611;-64
2023/09/30 12:42:36;;;;;;;8.68;3.33;;;;;;;;;;5083036;28;20196;-64
2023/09/30 12:45:02;;;;;;;8.25;3.05;;;;;;;;;;5082909;28;20195;-64
2023/09/30 12:47:28;;;;;;;9.98;3.17;;;;;;;;;;5086614;28;20651;-64
2023/09/30 12:49:54;;;;;;;10.25;3.13;;;;;;;;;;5097843;28;20195;-65
2023/09/30 12:52:20;;;;;;;7.38;2.80;;;;;;;;;;5075913;28;20203;-64
2023/09/30 12:54:45;;;;;;;10.65;2.90;;;;;;;;;;5093643;28;20616;-64
2023/09/30 12:57:13;;;;;;;11.75;3.58;;;;;;;;;;5078604;28;20197;-64
2023/09/30 12:59:38;;;;;;;13.15;2.85;;;;;;;;;;5082764;28;20192;-64
2023/09/30 13:02:05;;;;;;;7.30;2.60;;;;;;;;;;5083871;28;21138;-64
2023/09/30 13:04:30;;;;;;;12.82;3.08;;;;;;;;;;5088603;28;20199;-64
2023/09/30 13:06:55;;;;;;;15.48;3.70;;;;;;;;;;5090687;28;20195;-64
2023/09/30 13:09:21;;;;;;;9.38;3.25;;;;;;;;;;5086275;28;20242;-64
2023/09/30 13:11:47;;;;;;;12.75;3.38;;;;;;;;;;5076128;28;20224;-64
2023/09/30 13:14:13;;;;;;;11.32;3.17;;;;;;;;;;5084554;28;20536;-64
2023/09/30 13:16:38;;;;;;;9.77;3.00;;;;;;;;;;5093822;28;20192;-64
2023/09/30 13:19:04;;;;;;;9.05;2.95;;;;;;;;;;5085932;28;20185;-64
2023/09/30 13:21:30;;;;;;;9.63;3.00;;;;;;;;;;5084866;28;20571;-64
2023/09/30 13:23:55;;;;;;;11.32;3.35;;;;;;;;;;4733332;28;9999832;-64
2023/09/30 13:26:20;;;;;;;15.15;3.20;;;;;;;;;;5079287;28;20204;-63
2023/09/30 13:28:46;;;;;;;8.88;2.72;;;;;;;;;;5095745;28;20222;-63
2023/09/30 13:31:11;;;;;;;9.43;2.90;;;;;;;;;;5081515;28;20195;-63
2023/09/30 13:33:38;;;;;;;7.72;3.13;;;;;;;;;;5083019;28;21345;-75
2023/09/30 13:36:04;;;;;;;9.80;2.90;;;;;;;;;;5071793;28;20188;-76
2023/09/30 13:38:29;;;;;;;13.07;2.97;;;;;;;;;;5063856;28;20249;-76
2023/09/30 13:40:54;;;;;;;9.95;2.75;;;;;;;;;;5054645;28;20176;-76
2023/09/30 13:43:20;;;;;;;8.43;2.78;;;;;;;;;;5085811;28;20326;-76
2023/09/30 13:45:46;;;;;;;12.38;2.50;;;;;;;;;;5071041;28;20196;-76
2023/09/30 13:48:11;;;;;;;11.20;3.10;;;;;;;;;;5085910;28;20184;-76
2023/09/30 13:50:36;;;;;;;12.80;3.05;;;;;;;;;;5085663;28;20264;-75
2023/09/30 13:53:02;;;;;;;9.70;2.97;;;;;;;;;;5082580;28;20211;-76
2023/09/30 13:55:28;;;;;;;8.10;2.53;;;;;;;;;;5087662;28;20274;-76
2023/09/30 13:57:53;;;;;;;10.23;3.05;;;;;;;;;;5061010;28;20183;-76
2023/09/30 14:00:18;;;;;;;8.63;2.90;;;;;;;;;;5077503;28;20203;-75
2023/09/30 14:02:44;;;;;;;11.80;2.80;;;;;;;;;;5069334;28;20694;-76
2023/09/30 14:05:10;;;;;;;11.93;3.30;;;;;;;;;;5051326;28;20201;-76
2023/09/30 14:07:39;;;;;;;9.00;2.42;;;;;;;;;;5064491;28;20265;-76
2023/09/30 14:10:06;;;;;;;12.55;3.72;;;;;;;;;;5079221;28;20192;-75
2023/09/30 14:12:31;;;;;;;9.27;3.10;;;;;;;;;;5061469;28;20268;-76
2023/09/30 14:14:57;;;;;;;12.48;3.17;;;;;;;;;;5070165;28;20298;-77
2023/09/30 14:17:22;;;;;;;12.52;3.20;;;;;;;;;;5074350;28;20212;-76
2023/09/30 14:19:47;;;;;;;13.30;3.95;;;;;;;;;;5069934;28;20185;-76
2023/09/30 14:22:13;;;;;;;14.00;3.00;;;;;;;;;;5068942;28;20197;-75
2023/09/30 14:24:39;;;;;;;10.97;2.60;;;;;;;;;;4716250;28;10000207;-76
2023/09/30 14:27:05;;;;;;;9.57;2.92;;;;;;;;;;5050208;28;20557;-78